Terminal Aerodrome Forecast
Issued by NWS Twin Cities, MN

Home | Current Version | Previous Version | Graphics & Text | Print | Product List | Glossary On
Versions: 1 2 3 4 5 6 7 8 9 10 11 12 13 14 15 16 17 18 19
000
FTUS43 KMPX 261720
TAFEAU
TAF
KEAU 261720Z 2618/2718 03005KT 6SM BR VCSH OVC006
      TEMPO 2620/2624 OVC010
     FM270100 VRB03KT 5SM BR OVC003=

USA.gov is the U.S. government's official web portal to all federal, state and local government web resources and services.